CheckWX is a tool to help pilots better visualize weather data.  It is not intended as a substitute for an official pre-flight weather briefing.

09:28:50 UTC

KMYV METAR
Yuba County Airport
Marysville, California, USA
Current

36 mins ago

KMYV 200853Z AUTO 15012KT 10SM OVC120 08/01 A3004 RMK AO2 SLP175 T00780006 56020
Observed
Feb-20 @ 08:53 UTC
Wind
  • 150° at 12 KTS
Visibility
16,093 meters
Flight Rules
VFR
Cloud Levels
  • Overcast at 12,000' AGL
Temperature
C / 46°F
Dewpoint
C / 34°F
Humidity
62%
Altimeter
30.04" Hg
Pressure
1017.5 hPa
Previous

2 hours ago

KMYV 200753Z AUTO 14009KT 10SM OVC120 07/01 A3005 RMK AO2 SLP180 T00720006 401330022
Observed
Feb-20 @ 07:53 UTC
Wind
  • 140° at 9 KTS
Visibility
16,093 meters
Flight Rules
VFR
Cloud Levels
  • Overcast at 12,000' AGL
Temperature
C / 45°F
Dewpoint
C / 34°F
Humidity
66%
Altimeter
30.05" Hg
Pressure
1018 hPa
Previous

3 hours ago

KMYV 200653Z AUTO 14010KT 10SM CLR 07/00 A3007 RMK AO2 SLP184 T00720000
Observed
Feb-20 @ 06:53 UTC
Wind
  • 140° at 10 KTS
Visibility
16,093 meters
Flight Rules
VFR
Cloud Levels
  • Clear skies
Temperature
C / 45°F
Dewpoint
C / 32°F
Humidity
61%
Altimeter
30.07" Hg
Pressure
1018.4 hPa